createdAt,value
2019-02-07T00:01:37.654Z,48.60
2019-02-07T00:03:39.341Z,48.84
2019-02-07T00:05:41.513Z,49.04
2019-02-07T00:07:43.155Z,49.02
2019-02-07T00:09:44.980Z,49.15
2019-02-07T00:11:46.747Z,48.78
2019-02-07T00:13:48.420Z,49.01
2019-02-07T00:15:50.067Z,49.18
2019-02-07T00:17:52.286Z,49.26
2019-02-07T00:19:53.940Z,49.76
2019-02-07T00:21:55.583Z,50.12
2019-02-07T00:23:57.413Z,50.39
2019-02-07T00:25:59.902Z,50.36
2019-02-07T00:28:01.543Z,51.01
2019-02-07T00:30:03.254Z,51.45
2019-02-07T00:32:04.931Z,51.40
2019-02-07T00:34:06.704Z,51.64
2019-02-07T00:36:08.347Z,51.97
2019-02-07T00:38:10.157Z,51.58
2019-02-07T00:40:11.930Z,51.52
2019-02-07T00:42:13.562Z,51.60
2019-02-07T00:44:15.189Z,51.73
2019-02-07T00:46:17.639Z,51.66
2019-02-07T00:48:19.319Z,51.77
2019-02-07T00:50:21.024Z,51.89
2019-02-07T00:52:22.672Z,52.15
2019-02-07T00:54:24.304Z,52.03
2019-02-07T00:56:25.986Z,52.24
2019-02-07T00:58:27.628Z,52.24
2019-02-07T01:00:29.543Z,52.56
2019-02-07T01:02:31.269Z,52.73
2019-02-07T01:04:32.919Z,53.07
2019-02-07T01:06:34.817Z,53.32
2019-02-07T01:08:36.491Z,53.05
2019-02-07T01:10:38.178Z,53.24
2019-02-07T01:12:39.820Z,53.50
2019-02-07T01:14:41.470Z,53.86
2019-02-07T01:16:43.214Z,54.09
2019-02-07T01:18:44.963Z,54.08
2019-02-07T01:20:46.638Z,54.11
2019-02-07T01:22:48.309Z,54.46
2019-02-07T01:24:50.020Z,54.66
2019-02-07T01:26:51.945Z,54.45
2019-02-07T01:28:53.744Z,55.09
2019-02-07T01:30:55.383Z,54.77
2019-02-07T01:32:57.089Z,54.55
2019-02-07T01:34:58.867Z,54.60
2019-02-07T01:37:00.522Z,54.97
2019-02-07T01:39:02.185Z,55.11
2019-02-07T01:41:03.827Z,55.18
2019-02-07T01:43:05.464Z,55.14
2019-02-07T01:45:12.983Z,55.17
2019-02-07T01:47:08.909Z,55.26
2019-02-07T01:49:10.570Z,55.09
2019-02-07T01:51:12.279Z,55.48
2019-02-07T01:53:14.291Z,55.53
2019-02-07T01:55:15.941Z,55.23
2019-02-07T01:57:18.303Z,55.39
2019-02-07T01:59:20.051Z,55.26
2019-02-07T02:01:21.695Z,55.43
2019-02-07T02:03:23.331Z,55.49
2019-02-07T02:05:24.976Z,55.37
2019-02-07T02:07:27.342Z,55.46
2019-02-07T02:09:28.983Z,55.57
2019-02-07T02:11:30.646Z,55.78
2019-02-07T02:13:32.515Z,56.23
2019-02-07T02:15:34.187Z,56.17
2019-02-07T02:17:36.067Z,56.21
2019-02-07T02:19:37.843Z,56.36
2019-02-07T02:21:39.512Z,56.34
2019-02-07T02:23:41.294Z,56.44
2019-02-07T02:25:43.007Z,56.46
2019-02-07T02:27:44.845Z,56.19
2019-02-07T02:29:46.483Z,56.05
2019-02-07T02:31:48.119Z,56.21
2019-02-07T02:33:49.787Z,55.88
2019-02-07T02:35:51.442Z,56.17
2019-02-07T02:37:53.082Z,56.55
2019-02-07T02:39:54.727Z,56.46
2019-02-07T02:41:56.627Z,56.04
2019-02-07T02:43:58.283Z,56.17
2019-02-07T02:46:00.013Z,55.82
2019-02-07T02:48:01.688Z,56.06
2019-02-07T02:50:03.343Z,55.70
2019-02-07T02:52:05.007Z,55.68
2019-02-07T02:54:06.674Z,55.70
2019-02-07T02:56:08.331Z,55.50
2019-02-07T02:58:09.994Z,55.42
2019-02-07T03:00:11.712Z,55.32
2019-02-07T03:02:14.122Z,55.55
2019-02-07T03:04:15.904Z,55.54
2019-02-07T03:06:37.534Z,55.54
2019-02-07T03:08:39.556Z,55.58
2019-02-07T03:10:56.121Z,55.58
2019-02-07T03:12:58.491Z,55.54
2019-02-07T03:15:17.619Z,56.11
2019-02-07T03:17:24.200Z,56.84
2019-02-07T03:19:44.523Z,56.80
2019-02-07T03:21:46.983Z,57.41
2019-02-07T03:23:51.552Z,57.58
2019-02-07T03:26:14.254Z,58.05
2019-02-07T03:28:22.404Z,58.14
2019-02-07T03:30:41.822Z,58.45
2019-02-07T03:32:44.585Z,58.09
2019-02-07T03:34:49.084Z,57.92
2019-02-07T03:37:11.586Z,57.89
2019-02-07T03:39:19.892Z,58.39
2019-02-07T03:41:23.073Z,58.72
2019-02-07T03:43:40.335Z,58.37
2019-02-07T03:45:46.148Z,58.27
2019-02-07T03:47:49.739Z,58.02
2019-02-07T03:49:57.230Z,58.36
2019-02-07T03:51:59.354Z,58.14
2019-02-07T03:54:15.880Z,58.13
2019-02-07T03:56:32.414Z,58.49
2019-02-07T03:58:52.756Z,58.56
2019-02-07T04:01:10.005Z,58.61
2019-02-07T04:03:17.542Z,58.67
2019-02-07T04:05:29.107Z,58.07
2019-02-07T04:07:39.440Z,58.23
2019-02-07T04:09:57.724Z,58.41
2019-02-07T04:12:05.437Z,59.40
2019-02-07T04:14:22.807Z,58.70
2019-02-07T04:16:40.137Z,58.12
2019-02-07T04:18:58.591Z,57.99
2019-02-07T04:21:04.219Z,57.86
2019-02-07T04:23:23.741Z,57.38
2019-02-07T04:25:28.788Z,57.25
2019-02-07T04:27:32.042Z,57.19
2019-02-07T04:29:36.440Z,56.85
2019-02-07T04:31:41.706Z,57.66
2019-02-07T04:33:49.099Z,57.74
2019-02-07T04:35:53.843Z,57.88
2019-02-07T04:37:58.067Z,57.84
2019-02-07T04:40:03.360Z,57.77
2019-02-07T04:42:06.449Z,57.36
2019-02-07T04:44:13.699Z,57.45
2019-02-07T04:46:27.200Z,57.35
2019-02-07T04:48:25.313Z,57.32
2019-02-07T04:50:27.864Z,57.24
2019-02-07T04:52:35.170Z,56.97
2019-02-07T04:54:40.418Z,57.21
2019-02-07T04:56:42.060Z,56.94
2019-02-07T04:58:45.346Z,56.92
2019-02-07T05:01:06.804Z,57.30
2019-02-07T05:03:23.374Z,56.94
2019-02-07T05:05:25.125Z,57.18
2019-02-07T05:07:37.768Z,57.53
2019-02-07T05:09:46.502Z,56.23
2019-02-07T05:11:48.625Z,53.99
2019-02-07T05:13:53.881Z,53.98
2019-02-07T05:15:55.598Z,54.33
2019-02-07T05:18:01.319Z,54.62
2019-02-07T05:20:05.514Z,54.93
2019-02-07T05:22:07.493Z,55.10
2019-02-07T05:24:27.182Z,55.41
2019-02-07T05:26:29.765Z,55.39
2019-02-07T05:28:36.409Z,55.51
2019-02-07T05:30:48.072Z,55.52
2019-02-07T05:33:08.751Z,55.45
2019-02-07T05:35:20.407Z,55.38
2019-02-07T05:37:22.047Z,55.29
2019-02-07T05:39:29.439Z,55.41
2019-02-07T05:41:34.729Z,55.29
2019-02-07T05:43:54.267Z,55.29
2019-02-07T05:46:01.563Z,55.19
2019-02-07T05:48:05.847Z,55.11
2019-02-07T05:50:13.248Z,55.17
2019-02-07T05:52:17.371Z,55.22
2019-02-07T05:54:24.757Z,55.54
2019-02-07T05:56:26.905Z,55.43
2019-02-07T05:58:44.232Z,55.44
2019-02-07T06:00:51.622Z,55.47
2019-02-07T06:02:53.747Z,55.31
2019-02-07T06:04:59.833Z,55.35
2019-02-07T06:07:05.376Z,55.47
2019-02-07T06:09:25.828Z,55.43
2019-02-07T06:11:44.137Z,55.41
2019-02-07T06:13:50.315Z,55.91
2019-02-07T06:15:56.958Z,55.48
2019-02-07T06:18:01.792Z,55.55
2019-02-07T06:20:08.537Z,55.72
2019-02-07T06:22:14.761Z,55.63
2019-02-07T06:24:17.815Z,55.71
2019-02-07T06:26:30.217Z,55.62
2019-02-07T06:28:50.623Z,55.62
2019-02-07T06:30:55.236Z,55.62
2019-02-07T06:33:13.689Z,55.52
2019-02-07T06:35:19.051Z,55.61
2019-02-07T06:37:22.131Z,55.38
2019-02-07T06:39:24.288Z,55.44
2019-02-07T06:41:35.843Z,55.43
2019-02-07T06:43:53.323Z,55.38
2019-02-07T06:46:06.711Z,55.67
2019-02-07T06:48:22.354Z,55.67
2019-02-07T06:50:24.029Z,55.88
2019-02-07T06:52:29.279Z,55.82
2019-02-07T06:54:36.574Z,55.96
2019-02-07T06:56:43.794Z,55.93
2019-02-07T06:58:47.271Z,55.94
2019-02-07T07:00:54.595Z,56.00
2019-02-07T07:03:16.019Z,56.00
2019-02-07T07:05:20.311Z,56.30
2019-02-07T07:07:40.656Z,56.03
2019-02-07T07:09:58.098Z,56.05
2019-02-07T07:12:00.390Z,55.94
2019-02-07T07:14:05.560Z,56.22
2019-02-07T07:16:12.787Z,55.99
2019-02-07T07:18:14.422Z,56.18
2019-02-07T07:20:21.919Z,56.16
2019-02-07T07:22:40.295Z,56.26
2019-02-07T07:24:47.574Z,56.44
2019-02-07T07:26:49.850Z,56.52
2019-02-07T07:29:06.368Z,56.59
2019-02-07T07:31:11.850Z,56.89
2019-02-07T07:33:18.000Z,56.85
2019-02-07T07:35:20.509Z,57.06
2019-02-07T07:37:32.978Z,56.97
2019-02-07T07:39:54.315Z,56.89
2019-02-07T07:42:13.694Z,56.96
2019-02-07T07:44:19.903Z,56.65
2019-02-07T07:46:30.273Z,56.62
2019-02-07T07:48:52.926Z,56.38
2019-02-07T07:51:06.472Z,56.18
2019-02-07T07:53:23.980Z,56.10
2019-02-07T07:55:30.075Z,56.29
2019-02-07T07:57:49.150Z,56.02
2019-02-07T08:00:09.626Z,56.10
2019-02-07T08:02:11.884Z,55.83
2019-02-07T08:04:28.460Z,56.24
2019-02-07T08:06:33.591Z,56.09
2019-02-07T08:08:35.226Z,56.37
2019-02-07T08:10:52.703Z,56.39
2019-02-07T08:12:56.079Z,56.30
2019-02-07T08:15:03.348Z,56.56
2019-02-07T08:17:05.001Z,56.61
2019-02-07T08:19:09.772Z,56.58
2019-02-07T08:21:17.115Z,56.55
2019-02-07T08:23:24.992Z,56.41
2019-02-07T08:25:30.370Z,56.29
2019-02-07T08:27:50.826Z,56.22
2019-02-07T08:29:52.953Z,56.11
2019-02-07T08:32:00.242Z,56.34
2019-02-07T08:34:21.760Z,56.29
2019-02-07T08:36:29.140Z,55.87
2019-02-07T08:38:31.688Z,55.86
2019-02-07T08:40:40.996Z,55.40
2019-02-07T08:42:47.564Z,55.69
2019-02-07T08:45:04.930Z,54.94
2019-02-07T08:47:09.257Z,53.99
2019-02-07T08:49:16.643Z,53.28
2019-02-07T08:51:23.948Z,52.75
2019-02-07T08:53:26.198Z,52.11
2019-02-07T08:55:42.686Z,51.74
2019-02-07T08:58:00.187Z,51.34
2019-02-07T09:00:07.491Z,51.13
2019-02-07T09:02:09.811Z,51.08
2019-02-07T09:04:17.175Z,50.93
2019-02-07T09:06:19.769Z,50.78
2019-02-07T09:08:27.284Z,50.58
2019-02-07T09:10:34.667Z,50.39
2019-02-07T09:12:51.394Z,50.32
2019-02-07T09:14:58.608Z,50.27
2019-02-07T09:17:01.188Z,50.17
2019-02-07T09:19:21.621Z,50.07
2019-02-07T09:21:41.095Z,49.87
2019-02-07T09:23:58.377Z,49.73
2019-02-07T09:26:19.833Z,49.55
2019-02-07T09:28:37.224Z,49.46
2019-02-07T09:30:39.751Z,39.06
2019-02-07T09:32:58.036Z,37.34
2019-02-07T09:35:16.309Z,42.00
2019-02-07T09:37:23.651Z,41.57
2019-02-07T09:39:41.142Z,42.36
2019-02-07T09:41:43.686Z,42.76
2019-02-07T09:44:01.117Z,43.28
2019-02-07T09:46:08.575Z,44.18
2019-02-07T09:48:31.011Z,45.40
2019-02-07T09:50:47.535Z,45.16
2019-02-07T09:52:50.082Z,45.46
2019-02-07T09:55:09.370Z,44.64
2019-02-07T09:57:11.022Z,44.96
2019-02-07T09:59:16.208Z,45.50
2019-02-07T10:01:29.834Z,45.70
2019-02-07T10:03:41.430Z,46.13
2019-02-07T10:05:46.917Z,45.65
2019-02-07T10:07:49.207Z,45.79
2019-02-07T10:09:54.906Z,45.89
2019-02-07T10:11:58.036Z,46.57
2019-02-07T10:14:15.487Z,46.06
2019-02-07T10:16:20.643Z,45.91
2019-02-07T10:18:40.036Z,45.58
2019-02-07T10:20:58.327Z,46.10
2019-02-07T10:23:16.634Z,46.40
2019-02-07T10:25:37.078Z,46.90
2019-02-07T10:27:39.345Z,47.20
2019-02-07T10:29:51.787Z,47.89
2019-02-07T10:31:53.437Z,47.79
2019-02-07T10:34:10.632Z,47.82
2019-02-07T10:36:12.903Z,47.99
2019-02-07T10:38:21.500Z,47.97
2019-02-07T10:40:38.074Z,47.98
2019-02-07T10:42:41.240Z,48.04
2019-02-07T10:44:49.526Z,48.21
2019-02-07T10:46:53.977Z,48.32
2019-02-07T10:48:56.360Z,47.94
2019-02-07T10:51:02.497Z,47.42
2019-02-07T10:53:06.742Z,47.26
2019-02-07T10:55:21.199Z,47.43
2019-02-07T10:57:28.515Z,47.39
2019-02-07T10:59:31.607Z,47.47
2019-02-07T11:01:36.071Z,47.68
2019-02-07T11:03:53.542Z,47.76
2019-02-07T11:06:03.702Z,47.85
2019-02-07T11:08:10.924Z,47.57
2019-02-07T11:10:13.542Z,47.07
2019-02-07T11:12:16.947Z,47.38
2019-02-07T11:14:28.467Z,48.12
2019-02-07T11:16:35.680Z,48.63
2019-02-07T11:18:56.178Z,48.79
2019-02-07T11:21:01.253Z,49.20
2019-02-07T11:23:09.405Z,48.91
2019-02-07T11:25:13.664Z,48.89
2019-02-07T11:27:18.057Z,47.77
2019-02-07T11:29:40.520Z,48.29
2019-02-07T11:31:42.177Z,48.57
2019-02-07T11:33:47.479Z,48.70
2019-02-07T11:36:03.995Z,48.69
2019-02-07T11:38:06.505Z,48.68
2019-02-07T11:40:12.639Z,48.66
2019-02-07T11:42:19.039Z,48.68
2019-02-07T11:44:22.286Z,48.69
2019-02-07T11:46:37.118Z,48.63
2019-02-07T11:48:37.657Z,48.62
2019-02-07T11:50:44.855Z,48.55
2019-02-07T11:52:47.946Z,48.56
2019-02-07T11:55:00.357Z,48.49
2019-02-07T11:57:05.658Z,48.74
2019-02-07T11:59:10.193Z,49.28
2019-02-07T12:01:13.590Z,49.50
2019-02-07T12:03:16.085Z,49.61
2019-02-07T12:05:19.528Z,49.72
2019-02-07T12:07:26.702Z,49.80
2019-02-07T12:09:33.991Z,49.67
2019-02-07T12:11:40.080Z,49.61
2019-02-07T12:13:58.513Z,49.58
2019-02-07T12:16:02.877Z,49.61
2019-02-07T12:18:07.910Z,49.68
2019-02-07T12:20:14.514Z,49.51
2019-02-07T12:22:31.786Z,49.08
2019-02-07T12:24:33.431Z,48.89
2019-02-07T12:26:51.771Z,48.94
2019-02-07T12:29:09.018Z,48.35
2019-02-07T12:31:29.351Z,48.23
2019-02-07T12:33:31.769Z,48.29
2019-02-07T12:35:35.246Z,48.23
2019-02-07T12:37:53.662Z,48.18
2019-02-07T12:39:58.716Z,48.23
2019-02-07T12:42:00.318Z,48.23
2019-02-07T12:44:06.390Z,48.21
2019-02-07T12:46:09.464Z,48.23
2019-02-07T12:48:16.628Z,48.29
2019-02-07T12:50:18.273Z,48.30
2019-02-07T12:52:39.701Z,48.29
2019-02-07T12:54:43.951Z,48.26
2019-02-07T12:56:45.632Z,48.25
2019-02-07T12:58:51.968Z,48.28
2019-02-07T13:00:59.268Z,48.27
2019-02-07T13:03:06.467Z,48.28
2019-02-07T13:05:14.517Z,48.25
2019-02-07T13:07:21.959Z,48.23
2019-02-07T13:09:23.634Z,48.20
2019-02-07T13:11:40.116Z,48.20
2019-02-07T13:13:47.244Z,48.22
2019-02-07T13:15:54.695Z,48.16
2019-02-07T13:18:02.879Z,48.19
2019-02-07T13:20:08.198Z,48.12
2019-02-07T13:22:25.540Z,48.07
2019-02-07T13:24:31.865Z,48.06
2019-02-07T13:26:51.151Z,48.00
2019-02-07T13:29:09.676Z,47.94
2019-02-07T13:31:26.246Z,47.92
2019-02-07T13:33:29.396Z,47.88
2019-02-07T13:35:36.531Z,47.83
2019-02-07T13:37:44.595Z,47.79
2019-02-07T13:39:52.057Z,47.74
2019-02-07T13:41:56.149Z,47.76
2019-02-07T13:44:07.688Z,47.87
2019-02-07T13:46:10.081Z,47.97
2019-02-07T13:48:28.359Z,48.01
2019-02-07T13:50:32.652Z,48.16
2019-02-07T13:52:39.279Z,48.12
2019-02-07T13:54:43.408Z,48.39
2019-02-07T13:57:01.807Z,48.36
2019-02-07T13:59:19.216Z,48.37
2019-02-07T14:01:30.734Z,48.27
2019-02-07T14:03:34.808Z,48.22
2019-02-07T14:05:42.264Z,48.10
2019-02-07T14:08:00.496Z,47.99
2019-02-07T14:10:02.895Z,47.91
2019-02-07T14:12:08.890Z,47.76
2019-02-07T14:14:11.432Z,47.65
2019-02-07T14:16:18.893Z,47.56
2019-02-07T14:18:22.983Z,47.44
2019-02-07T14:20:26.423Z,47.32
2019-02-07T14:22:28.504Z,47.21
2019-02-07T14:24:36.179Z,47.12
2019-02-07T14:26:38.755Z,47.08
2019-02-07T14:28:43.817Z,47.02
2019-02-07T14:30:51.291Z,46.99
2019-02-07T14:32:54.708Z,46.90
2019-02-07T14:35:01.975Z,46.87
2019-02-07T14:37:19.216Z,46.82
2019-02-07T14:39:29.466Z,46.78
2019-02-07T14:41:45.784Z,46.78
2019-02-07T14:43:48.279Z,46.69
2019-02-07T14:46:05.688Z,46.65
2019-02-07T14:48:07.314Z,46.66
2019-02-07T14:50:14.846Z,46.68
2019-02-07T14:52:10.569Z,46.65
2019-02-07T14:54:12.219Z,46.53
2019-02-07T14:56:13.831Z,46.52
2019-02-07T14:58:15.434Z,46.61
2019-02-07T15:00:17.075Z,46.56
2019-02-07T15:02:18.682Z,46.59
2019-02-07T15:04:20.319Z,46.55
2019-02-07T15:06:21.924Z,46.53
2019-02-07T15:08:23.526Z,46.62
2019-02-07T15:10:25.204Z,46.66
2019-02-07T15:12:26.842Z,46.61
2019-02-07T15:14:28.489Z,46.62
2019-02-07T15:16:30.142Z,46.64
2019-02-07T15:18:31.745Z,46.67
2019-02-07T15:20:33.349Z,46.71
2019-02-07T15:22:35.017Z,46.69
2019-02-07T15:24:36.665Z,46.77
2019-02-07T15:26:38.281Z,46.72
2019-02-07T15:28:39.910Z,46.81
2019-02-07T15:30:41.537Z,46.82
2019-02-07T15:32:43.178Z,46.82
2019-02-07T15:34:44.783Z,46.80
2019-02-07T15:36:46.387Z,46.78
2019-02-07T15:38:47.979Z,46.77
2019-02-07T15:40:49.587Z,46.77
2019-02-07T15:42:51.220Z,46.75
2019-02-07T15:44:52.852Z,46.74
2019-02-07T15:46:54.449Z,46.74
2019-02-07T15:48:56.176Z,46.68
2019-02-07T15:50:57.777Z,46.66
2019-02-07T15:52:59.401Z,46.65
2019-02-07T15:55:01.045Z,46.64
2019-02-07T15:57:02.703Z,46.58
2019-02-07T15:59:06.794Z,46.55
2019-02-07T16:01:13.305Z,46.55
2019-02-07T16:03:14.915Z,46.51
2019-02-07T16:05:16.556Z,46.50
2019-02-07T16:07:18.183Z,46.41
2019-02-07T16:09:19.818Z,46.35
2019-02-07T16:11:21.424Z,46.36
2019-02-07T16:13:23.087Z,46.27
2019-02-07T16:15:24.742Z,46.32
2019-02-07T16:17:26.346Z,46.28
2019-02-07T16:19:27.960Z,46.30
2019-02-07T16:21:29.568Z,46.29
2019-02-07T16:23:31.184Z,46.28
2019-02-07T16:25:32.806Z,46.26
2019-02-07T16:27:34.421Z,46.25
2019-02-07T16:29:36.035Z,46.22
2019-02-07T16:31:37.648Z,46.24
2019-02-07T16:33:39.362Z,46.23
2019-02-07T16:35:40.972Z,46.24
2019-02-07T16:37:42.614Z,46.18
2019-02-07T16:39:44.223Z,46.25
2019-02-07T16:41:45.833Z,46.25
2019-02-07T16:43:47.472Z,46.26
2019-02-07T16:45:49.087Z,46.23
2019-02-07T16:47:50.689Z,46.24
2019-02-07T16:49:52.448Z,46.24
2019-02-07T16:51:54.056Z,46.15
2019-02-07T16:53:55.657Z,46.14
2019-02-07T16:55:57.270Z,46.12
2019-02-07T16:57:58.868Z,46.05
2019-02-07T17:00:00.577Z,46.07
2019-02-07T17:02:02.733Z,46.10
2019-02-07T17:04:04.374Z,46.14
2019-02-07T17:06:05.988Z,46.12
2019-02-07T17:08:07.576Z,46.11
2019-02-07T17:10:09.174Z,46.05
2019-02-07T17:12:10.794Z,46.02
2019-02-07T17:14:12.415Z,46.00
2019-02-07T17:16:14.121Z,46.04
2019-02-07T17:18:15.697Z,45.97
2019-02-07T17:20:17.290Z,45.98
2019-02-07T17:22:18.903Z,45.96
2019-02-07T17:24:20.558Z,45.97
2019-02-07T17:26:22.164Z,45.89
2019-02-07T17:28:23.769Z,45.90
2019-02-07T17:30:25.379Z,45.91
2019-02-07T17:32:26.997Z,45.96
2019-02-07T17:34:28.636Z,45.88
2019-02-07T17:36:30.259Z,45.81
2019-02-07T17:38:31.898Z,45.84
2019-02-07T17:40:33.503Z,45.81
2019-02-07T17:42:35.116Z,45.82
2019-02-07T17:44:37.850Z,45.85
2019-02-07T17:46:39.474Z,45.81
2019-02-07T17:48:41.130Z,45.80
2019-02-07T17:50:42.743Z,45.80
2019-02-07T17:52:44.359Z,45.83
2019-02-07T17:54:46.322Z,45.99
2019-02-07T17:56:47.973Z,46.20
2019-02-07T17:58:50.341Z,46.36
2019-02-07T18:01:06.843Z,46.58
2019-02-07T18:03:08.460Z,46.70
2019-02-07T18:05:10.066Z,46.91
2019-02-07T18:07:11.662Z,46.93
2019-02-07T18:09:13.300Z,46.95
2019-02-07T18:11:14.943Z,46.91
2019-02-07T18:13:16.550Z,46.88
2019-02-07T18:15:18.261Z,46.88
2019-02-07T18:17:19.965Z,46.76
2019-02-07T18:19:21.580Z,46.72
2019-02-07T18:21:33.652Z,46.62
2019-02-07T18:23:24.881Z,46.53
2019-02-07T18:25:26.481Z,46.39
2019-02-07T18:27:28.140Z,46.27
2019-02-07T18:29:29.746Z,46.08
2019-02-07T18:31:31.353Z,45.80
2019-02-07T18:33:32.992Z,45.55
2019-02-07T18:35:34.664Z,45.53
2019-02-07T18:37:36.275Z,45.52
2019-02-07T18:39:38.090Z,45.53
2019-02-07T18:41:39.747Z,45.52
2019-02-07T18:43:41.409Z,45.45
2019-02-07T18:45:43.022Z,45.49
2019-02-07T18:47:44.656Z,45.48
2019-02-07T18:49:46.262Z,45.45
2019-02-07T18:51:48.029Z,45.38
2019-02-07T18:53:49.694Z,45.34
2019-02-07T18:55:51.317Z,45.29
2019-02-07T18:57:52.917Z,45.27
2019-02-07T18:59:54.565Z,45.27
2019-02-07T19:01:56.221Z,45.30
2019-02-07T19:03:57.845Z,45.28
2019-02-07T19:05:59.454Z,45.29
2019-02-07T19:08:01.059Z,45.30
2019-02-07T19:10:02.669Z,45.31
2019-02-07T19:12:04.300Z,45.30
2019-02-07T19:14:05.926Z,45.34
2019-02-07T19:16:07.527Z,45.29
2019-02-07T19:18:09.140Z,45.34
2019-02-07T19:20:12.495Z,45.42
2019-02-07T19:22:12.430Z,45.38
2019-02-07T19:24:14.035Z,45.42
2019-02-07T19:26:15.669Z,45.40
2019-02-07T19:28:17.262Z,45.48
2019-02-07T19:30:18.863Z,45.46
2019-02-07T19:32:20.477Z,45.52
2019-02-07T19:34:22.148Z,45.59
2019-02-07T19:36:23.756Z,45.60
2019-02-07T19:38:25.424Z,45.64
2019-02-07T19:40:27.029Z,45.62
2019-02-07T19:42:28.695Z,45.66
2019-02-07T19:44:30.334Z,45.71
2019-02-07T19:46:31.934Z,45.67
2019-02-07T19:48:33.542Z,45.73
2019-02-07T19:50:35.197Z,45.75
2019-02-07T19:52:39.555Z,45.76
2019-02-07T19:54:38.991Z,45.72
2019-02-07T19:56:40.651Z,45.73
2019-02-07T19:58:42.255Z,45.69
2019-02-07T20:00:43.864Z,45.66
2019-02-07T20:02:45.473Z,45.59
2019-02-07T20:04:47.087Z,45.56
2019-02-07T20:06:48.685Z,45.49
2019-02-07T20:08:50.319Z,45.44
2019-02-07T20:10:51.953Z,45.36
2019-02-07T20:12:53.576Z,45.30
2019-02-07T20:14:55.201Z,45.27
2019-02-07T20:16:56.824Z,45.21
2019-02-07T20:18:58.467Z,45.18
2019-02-07T20:21:00.082Z,45.19
2019-02-07T20:23:01.723Z,45.21
2019-02-07T20:25:03.397Z,45.13
2019-02-07T20:27:05.012Z,45.14
2019-02-07T20:29:06.739Z,45.13
2019-02-07T20:31:08.435Z,45.15
2019-02-07T20:33:10.113Z,45.10
2019-02-07T20:35:11.717Z,45.10
2019-02-07T20:37:13.343Z,45.05
2019-02-07T20:39:15.218Z,45.08
2019-02-07T20:41:16.817Z,45.14
2019-02-07T20:43:18.426Z,45.12
2019-02-07T20:45:20.069Z,45.06
2019-02-07T20:47:21.679Z,45.10
2019-02-07T20:49:23.306Z,45.08
2019-02-07T20:51:24.913Z,45.11
2019-02-07T20:53:26.535Z,45.12
2019-02-07T20:55:28.196Z,45.10
2019-02-07T20:57:29.836Z,45.09
2019-02-07T20:59:31.442Z,45.09
2019-02-07T21:01:33.090Z,45.12
2019-02-07T21:03:34.697Z,45.07
2019-02-07T21:05:36.313Z,45.12
2019-02-07T21:07:37.960Z,45.09
2019-02-07T21:09:39.677Z,45.11
2019-02-07T21:11:41.352Z,45.16
2019-02-07T21:13:42.977Z,45.21
2019-02-07T21:15:44.596Z,45.32
2019-02-07T21:17:46.220Z,45.34
2019-02-07T21:19:47.833Z,45.43
2019-02-07T21:21:49.486Z,45.42
2019-02-07T21:23:51.085Z,45.40
2019-02-07T21:25:52.708Z,45.53
2019-02-07T21:27:54.357Z,45.53
2019-02-07T21:29:55.981Z,45.60
2019-02-07T21:31:57.595Z,45.63
2019-02-07T21:33:59.197Z,45.58
2019-02-07T21:36:00.809Z,45.55
2019-02-07T21:38:02.403Z,45.56
2019-02-07T21:40:04.048Z,45.62
2019-02-07T21:42:05.644Z,45.55
2019-02-07T21:44:07.258Z,45.57
2019-02-07T21:46:08.917Z,45.49
2019-02-07T21:48:10.536Z,45.47
2019-02-07T21:50:12.150Z,45.46
2019-02-07T21:52:13.793Z,45.38
2019-02-07T21:54:15.421Z,45.36
2019-02-07T21:56:17.026Z,45.41
2019-02-07T21:58:18.648Z,45.34
2019-02-07T22:00:20.258Z,45.60
2019-02-07T22:02:21.914Z,45.82
2019-02-07T22:04:23.562Z,45.45
2019-02-07T22:06:25.161Z,44.84
2019-02-07T22:08:26.761Z,45.16
2019-02-07T22:10:28.428Z,44.98
2019-02-07T22:12:30.033Z,45.27
2019-02-07T22:14:31.653Z,45.05
2019-02-07T22:16:33.242Z,45.28
2019-02-07T22:18:34.889Z,45.60
2019-02-07T22:20:36.531Z,45.60
2019-02-07T22:22:38.183Z,45.97
2019-02-07T22:24:39.790Z,45.79
2019-02-07T22:26:41.403Z,45.05
2019-02-07T22:28:43.461Z,45.92
2019-02-07T22:30:45.066Z,46.12
2019-02-07T22:32:46.661Z,46.12
2019-02-07T22:34:48.290Z,45.53
2019-02-07T22:36:49.895Z,45.79
2019-02-07T22:38:51.497Z,46.08
2019-02-07T22:40:53.107Z,46.46
2019-02-07T22:42:54.711Z,46.34
2019-02-07T22:44:56.377Z,46.75
2019-02-07T22:46:57.981Z,46.48
2019-02-07T22:48:59.590Z,46.28
2019-02-07T22:51:01.220Z,46.87
2019-02-07T22:53:02.903Z,46.61
2019-02-07T22:55:04.530Z,46.47
2019-02-07T22:57:06.151Z,46.51
2019-02-07T22:59:07.767Z,47.09
2019-02-07T23:01:09.393Z,47.49
2019-02-07T23:03:10.983Z,47.54
2019-02-07T23:05:12.598Z,47.70
2019-02-07T23:07:14.250Z,47.67
2019-02-07T23:09:15.904Z,47.96
2019-02-07T23:11:17.574Z,48.20
2019-02-07T23:13:19.185Z,47.99
2019-02-07T23:15:20.817Z,47.80
2019-02-07T23:17:22.432Z,48.16
2019-02-07T23:19:24.287Z,48.11
2019-02-07T23:21:25.890Z,48.47
2019-02-07T23:23:27.496Z,48.32
2019-02-07T23:25:29.131Z,48.17
2019-02-07T23:27:30.781Z,48.15
2019-02-07T23:29:32.415Z,48.48
2019-02-07T23:31:34.019Z,48.84
2019-02-07T23:33:35.635Z,48.70
2019-02-07T23:35:37.334Z,48.71
2019-02-07T23:37:38.946Z,49.12
2019-02-07T23:39:40.550Z,49.73
2019-02-07T23:41:42.150Z,49.76
2019-02-07T23:43:46.048Z,49.92
2019-02-07T23:45:45.417Z,50.17
2019-02-07T23:47:47.055Z,50.19
2019-02-07T23:49:48.685Z,50.29
2019-02-07T23:51:50.286Z,50.36
2019-02-07T23:53:51.885Z,50.34
2019-02-07T23:55:53.534Z,50.41
2019-02-07T23:57:55.142Z,50.26
2019-02-07T23:59:56.770Z,49.50
